Time;durP1;ratioP1;P1;durP2;ratioP2;P2;SDS_P1;SDS_P2;PMS_P1;PMS_P2;Temp;Humidity;BMP_temperature;BMP_pressure;BME280_temperature;BME280_humidity;BME280_pressure;Samples;Min_cycle;Max_cycle;Signal;HPM_P1;HPM_P2
2023/03/08 00:00:15;;;;;;;25.15;22.42;;;4.50;99.90;;;;;;2028353;29;20028;-72
2023/03/08 00:01:18;;;;;;;23.20;20.73;;;4.50;99.90;;;;;;2037327;29;20040;-72
2023/03/08 00:02:19;;;;;;;26.73;21.65;;;4.50;99.90;;;;;;2036694;29;20099;-72
2023/03/08 00:03:19;;;;;;;25.20;22.50;;;4.50;99.90;;;;;;2037256;29;20047;-72
2023/03/08 00:04:20;;;;;;;26.05;22.02;;;4.50;99.90;;;;;;2036386;29;20111;-72
2023/03/08 00:05:20;;;;;;;28.42;23.13;;;4.50;99.90;;;;;;2036298;29;20032;-72
2023/03/08 00:06:22;;;;;;;25.05;22.15;;;4.50;99.90;;;;;;2035639;29;20031;-72
2023/03/08 00:07:22;;;;;;;23.83;21.17;;;4.50;99.90;;;;;;2036283;29;20404;-72
2023/03/08 00:08:23;;;;;;;24.73;21.92;;;4.50;99.90;;;;;;2037879;29;20028;-72
2023/03/08 00:09:23;;;;;;;24.33;21.13;;;4.50;99.90;;;;;;2036607;29;20052;-72
2023/03/08 00:10:24;;;;;;;26.40;21.35;;;4.50;99.90;;;;;;2035270;29;20078;-72
2023/03/08 00:11:25;;;;;;;22.17;19.58;;;4.50;99.90;;;;;;2042299;29;20550;-73
2023/03/08 00:12:28;;;;;;;24.15;21.55;;;4.60;99.90;;;;;;2042843;28;20030;-72
2023/03/08 00:13:28;;;;;;;23.20;20.70;;;4.60;99.90;;;;;;2027711;29;20048;-72
2023/03/08 00:14:29;;;;;;;22.02;19.65;;;4.60;99.90;;;;;;2027293;29;20028;-72
2023/03/08 00:15:29;;;;;;;24.48;21.42;;;4.60;99.90;;;;;;2036079;29;20100;-72
2023/03/08 00:16:30;;;;;;;21.27;18.75;;;4.60;99.90;;;;;;2036117;29;20027;-72
2023/03/08 00:17:30;;;;;;;23.90;21.27;;;4.60;99.90;;;;;;2036811;29;20034;-73
2023/03/08 00:18:32;;;;;;;22.38;19.98;;;4.60;99.90;;;;;;2038042;29;20103;-73
2023/03/08 00:19:33;;;;;;;24.27;20.27;;;4.60;99.90;;;;;;2037394;29;20027;-73
2023/03/08 00:20:33;;;;;;;24.67;22.08;;;4.60;99.90;;;;;;2036784;29;20028;-73
2023/03/08 00:21:34;;;;;;;22.83;20.33;;;4.60;99.90;;;;;;2029319;29;20599;-72
2023/03/08 00:22:39;;;;;;;26.15;23.33;;;4.60;99.90;;;;;;2029724;29;20111;-72
2023/03/08 00:23:40;;;;;;;27.40;22.83;;;4.60;99.90;;;;;;2037417;29;20074;-72
2023/03/08 00:24:40;;;;;;;27.17;22.90;;;4.60;99.90;;;;;;2036549;29;20035;-73
2023/03/08 00:25:41;;;;;;;23.20;20.73;;;4.60;99.90;;;;;;2037676;29;20023;-72
2023/03/08 00:26:42;;;;;;;25.15;20.92;;;4.60;99.90;;;;;;2038662;29;20059;-72
2023/03/08 00:27:43;;;;;;;26.00;21.48;;;4.60;99.90;;;;;;2037354;29;20024;-72
2023/03/08 00:28:45;;;;;;;25.08;21.88;;;4.60;99.90;;;;;;2036144;29;20157;-72
2023/03/08 00:29:45;;;;;;;25.20;21.85;;;4.60;99.90;;;;;;2037351;29;20031;-72
2023/03/08 00:31:19;;;;;;;24.25;21.65;;;4.60;99.90;;;;;;2036992;29;20036;-72
2023/03/08 00:32:20;;;;;;;24.33;21.67;;;4.60;99.90;;;;;;2037157;29;20040;-73
2023/03/08 00:33:20;;;;;;;24.85;21.65;;;4.60;99.90;;;;;;2037759;29;20032;-73
2023/03/08 00:34:21;;;;;;;25.65;22.67;;;4.60;99.90;;;;;;2036552;29;20451;-73
2023/03/08 00:35:21;;;;;;;27.23;23.02;;;4.60;99.90;;;;;;2044023;28;20023;-73
2023/03/08 00:36:22;;;;;;;26.58;22.83;;;4.60;99.90;;;;;;2044650;28;20031;-72
2023/03/08 00:37:22;;;;;;;24.60;21.92;;;4.60;99.90;;;;;;2037433;29;20032;-72
2023/03/08 00:38:23;;;;;;;29.90;25.65;;;4.60;99.90;;;;;;2036797;29;20637;-72
2023/03/08 00:39:24;;;;;;;27.88;23.77;;;4.60;99.90;;;;;;2037784;29;20039;-73
2023/03/08 00:40:24;;;;;;;26.98;23.33;;;4.60;99.90;;;;;;2038326;29;20036;-72
2023/03/08 00:41:25;;;;;;;28.60;23.67;;;4.60;99.90;;;;;;2038235;29;20028;-72
2023/03/08 00:42:26;;;;;;;26.75;23.45;;;4.60;99.90;;;;;;2037902;29;20019;-72
2023/03/08 00:43:27;;;;;;;26.88;23.98;;;4.60;99.90;;;;;;2038657;29;20128;-72
2023/03/08 00:44:28;;;;;;;25.75;22.90;;;4.60;99.90;;;;;;2037717;29;20054;-72
2023/03/08 00:45:28;;;;;;;26.52;22.95;;;4.60;99.90;;;;;;2036159;29;20065;-73
2023/03/08 00:46:29;;;;;;;24.75;22.00;;;4.60;99.90;;;;;;2036584;29;20024;-72
2023/03/08 00:47:29;;;;;;;25.27;22.58;;;4.60;99.90;;;;;;2038096;29;20028;-72
2023/03/08 00:48:30;;;;;;;30.55;23.10;;;4.60;99.90;;;;;;2038252;29;20027;-72
2023/03/08 00:49:31;;;;;;;27.70;22.73;;;4.60;99.90;;;;;;2036412;29;20031;-72
2023/03/08 00:50:31;;;;;;;29.88;22.67;;;4.60;99.90;;;;;;2036938;29;20107;-72
2023/03/08 00:51:32;;;;;;;27.23;22.30;;;4.60;99.90;;;;;;2036328;29;20028;-72
2023/03/08 00:52:32;;;;;;;25.15;21.75;;;4.60;99.90;;;;;;2037026;29;20083;-72
2023/03/08 00:53:33;;;;;;;28.40;23.80;;;4.60;99.90;;;;;;2037557;29;20102;-72
2023/03/08 00:54:34;;;;;;;24.02;20.75;;;4.60;99.90;;;;;;2036778;29;20016;-73
2023/03/08 00:55:34;;;;;;;26.60;22.00;;;4.60;99.90;;;;;;2036810;29;20043;-73
2023/03/08 00:56:35;;;;;;;25.75;23.02;;;4.60;99.90;;;;;;2037463;29;20025;-72
2023/03/08 00:57:35;;;;;;;26.13;22.92;;;4.60;99.90;;;;;;2037817;29;20534;-73
2023/03/08 00:58:38;;;;;;;28.23;23.27;;;4.60;99.90;;;;;;2036778;29;20148;-73
2023/03/08 00:59:38;;;;;;;28.73;24.55;;;4.60;99.90;;;;;;2038237;29;20047;-73
2023/03/08 01:00:39;;;;;;;28.40;24.60;;;4.60;99.90;;;;;;2029609;29;20028;-73
2023/03/08 01:01:40;;;;;;;26.98;22.98;;;4.60;99.90;;;;;;2028966;29;20409;-72
2023/03/08 01:02:40;;;;;;;27.92;22.98;;;4.60;99.90;;;;;;2036832;29;20134;-72
2023/03/08 01:03:41;;;;;;;29.23;24.02;;;4.60;99.90;;;;;;2036595;29;20036;-72
2023/03/08 01:04:41;;;;;;;29.35;25.15;;;4.60;99.90;;;;;;2035635;29;20527;-72
2023/03/08 01:05:44;;;;;;;28.65;24.40;;;4.70;99.90;;;;;;2027634;29;20091;-73
2023/03/08 01:06:45;;;;;;;27.80;24.67;;;4.70;99.90;;;;;;2028178;29;20118;-72
2023/03/08 01:07:45;;;;;;;28.27;24.55;;;4.70;99.90;;;;;;2036757;29;20035;-72
2023/03/08 01:08:46;;;;;;;30.48;25.90;;;4.70;99.90;;;;;;2037070;29;20472;-72
2023/03/08 01:09:46;;;;;;;28.60;24.70;;;4.70;99.90;;;;;;2036407;29;20407;-73
2023/03/08 01:10:49;;;;;;;33.00;26.77;;;4.70;99.90;;;;;;2037241;29;20034;-73
2023/03/08 01:11:49;;;;;;;30.35;25.05;;;4.70;99.90;;;;;;2037305;29;20511;-73
2023/03/08 01:12:50;;;;;;;25.55;22.90;;;4.70;99.90;;;;;;2038012;29;20411;-72
2023/03/08 01:13:51;;;;;;;28.08;24.55;;;4.70;99.90;;;;;;2037550;29;20119;-72
2023/03/08 01:14:52;;;;;;;28.00;24.67;;;4.70;99.90;;;;;;2036184;29;20024;-72
2023/03/08 01:15:53;;;;;;;27.15;23.25;;;4.70;99.90;;;;;;2037414;29;20042;-72
2023/03/08 01:16:53;;;;;;;29.85;25.45;;;4.70;99.90;;;;;;2037842;29;20027;-72
2023/03/08 01:17:54;;;;;;;25.38;22.67;;;4.70;99.90;;;;;;2038989;29;20027;-72
2023/03/08 01:18:55;;;;;;;32.70;25.85;;;4.70;99.90;;;;;;2028791;29;20028;-72
2023/03/08 01:19:55;;;;;;;28.15;24.33;;;4.70;99.90;;;;;;2029779;29;20078;-72
2023/03/08 01:21:02;;;;;;;24.98;22.27;;;4.70;99.90;;;;;;2036270;29;20031;-72
2023/03/08 01:22:03;;;;;;;32.63;24.70;;;4.70;99.90;;;;;;2036937;29;20071;-73
2023/03/08 01:23:03;;;;;;;30.48;24.92;;;4.60;99.90;;;;;;2036532;29;20031;-73
2023/03/08 01:24:05;;;;;;;27.05;24.17;;;4.70;99.90;;;;;;2038192;29;20058;-73
2023/03/08 01:25:06;;;;;;;28.35;24.05;;;4.70;99.90;;;;;;2037108;29;20099;-72
2023/03/08 01:26:18;;;;;;;28.25;23.10;;;4.70;99.90;;;;;;2037984;29;20023;-73
2023/03/08 01:27:19;;;;;;;30.88;24.30;;;4.60;99.90;;;;;;2038185;29;20522;-72
2023/03/08 01:28:20;;;;;;;30.08;23.98;;;4.70;99.90;;;;;;2035693;29;20530;-72
2023/03/08 01:29:20;;;;;;;31.58;25.75;;;4.60;99.90;;;;;;2036295;29;20024;-72
2023/03/08 01:30:21;;;;;;;26.70;23.70;;;4.70;99.90;;;;;;2036496;29;20046;-72
2023/03/08 01:31:24;;;;;;;28.80;23.00;;;4.60;99.90;;;;;;2038630;29;20028;-72
2023/03/08 01:32:26;;;;;;;26.70;23.00;;;4.60;99.90;;;;;;2036728;29;20036;-72
2023/03/08 01:33:26;;;;;;;22.63;20.25;;;4.60;99.90;;;;;;2036709;29;20382;-72
2023/03/08 01:34:27;;;;;;;25.38;22.25;;;4.70;99.90;;;;;;2037529;29;20159;-73
2023/03/08 01:35:28;;;;;;;27.88;23.05;;;4.70;99.90;;;;;;2035536;29;20032;-73
2023/03/08 01:36:28;;;;;;;25.40;21.88;;;4.60;99.90;;;;;;2036571;29;20109;-73
2023/03/08 01:37:30;;;;;;;23.50;20.95;;;4.60;99.90;;;;;;2035729;29;20030;-73
2023/03/08 01:38:31;;;;;;;24.88;21.30;;;4.60;99.90;;;;;;2037355;29;20118;-73
2023/03/08 01:39:31;;;;;;;25.00;22.25;;;4.60;99.90;;;;;;2037395;29;20023;-72
2023/03/08 01:40:32;;;;;;;28.38;22.50;;;4.60;99.90;;;;;;2036800;29;20026;-72
2023/03/08 01:41:33;;;;;;;26.27;22.10;;;4.60;99.90;;;;;;2036605;29;20111;-72
2023/03/08 01:42:36;;;;;;;30.05;23.67;;;4.70;99.90;;;;;;2035664;29;20413;-72
2023/03/08 01:43:38;;;;;;;25.08;22.38;;;4.60;99.90;;;;;;2038063;29;20039;-73
2023/03/08 01:45:00;;;;;;;25.50;22.25;;;4.60;99.90;;;;;;2036136;29;20036;-73
2023/03/08 01:46:32;;;;;;;26.25;23.17;;;4.60;99.90;;;;;;2036819;29;20039;-72
2023/03/08 01:47:37;;;;;;;25.40;21.63;;;4.60;99.90;;;;;;2025602;29;20047;-72
2023/03/08 01:48:47;;;;;;;24.95;21.83;;;4.60;99.90;;;;;;2037149;29;20020;-72
2023/03/08 01:49:48;;;;;;;24.23;21.63;;;4.60;99.90;;;;;;2034227;29;20028;-72
2023/03/08 01:50:49;;;;;;;24.90;22.40;;;4.60;99.90;;;;;;2035653;29;20058;-72
2023/03/08 01:51:58;;;;;;;26.45;23.27;;;4.60;99.90;;;;;;2034199;29;20038;-72
2023/03/08 01:52:59;;;;;;;28.52;23.42;;;4.60;99.90;;;;;;2036517;29;20058;-72
2023/03/08 01:54:05;;;;;;;26.55;23.58;;;4.60;99.90;;;;;;2036712;29;20035;-72
2023/03/08 01:55:11;;;;;;;25.85;22.73;;;4.60;99.90;;;;;;2037178;29;20666;-73
2023/03/08 01:56:14;;;;;;;27.77;23.63;;;4.60;99.90;;;;;;2037348;29;20063;-72
2023/03/08 01:57:35;;;;;;;28.23;25.17;;;4.60;99.90;;;;;;2036901;29;20020;-72
2023/03/08 01:58:38;;;;;;;27.25;23.70;;;4.60;99.90;;;;;;2037039;29;20467;-72
2023/03/08 01:59:39;;;;;;;24.88;22.17;;;4.50;99.90;;;;;;2036235;29;20499;-72
2023/03/08 02:00:39;;;;;;;27.23;23.40;;;4.50;99.90;;;;;;2036902;29;20035;-71
2023/03/08 02:01:40;;;;;;;25.80;21.48;;;4.60;99.90;;;;;;2036688;29;20034;-71
2023/03/08 02:02:48;;;;;;;27.65;24.73;;;4.60;99.90;;;;;;2037173;29;21266;-71
2023/03/08 02:03:50;;;;;;;28.98;23.45;;;4.60;99.90;;;;;;2038014;29;20052;-71
2023/03/08 02:04:50;;;;;;;28.67;24.30;;;4.60;99.90;;;;;;2037275;29;20036;-71
2023/03/08 02:05:51;;;;;;;28.17;24.40;;;4.60;99.90;;;;;;2037697;29;20487;-71
2023/03/08 02:06:52;;;;;;;28.63;23.98;;;4.60;99.90;;;;;;2038901;29;20043;-72
2023/03/08 02:07:52;;;;;;;30.05;25.30;;;4.60;99.90;;;;;;2037803;29;20041;-71
2023/03/08 02:08:53;;;;;;;28.70;24.42;;;4.60;99.90;;;;;;2037161;29;20039;-71
2023/03/08 02:09:54;;;;;;;27.67;22.60;;;4.60;99.90;;;;;;2036465;29;20031;-71
2023/03/08 02:10:57;;;;;;;31.70;24.65;;;4.60;99.90;;;;;;2036376;29;20069;-71
2023/03/08 02:12:00;;;;;;;25.52;22.27;;;4.60;99.90;;;;;;2035823;29;20447;-71
2023/03/08 02:13:03;;;;;;;32.22;25.27;;;4.60;99.90;;;;;;2036022;29;20023;-71
2023/03/08 02:14:04;;;;;;;28.15;24.20;;;4.60;99.90;;;;;;2033992;29;20024;-71
2023/03/08 02:15:07;;;;;;;32.38;25.75;;;4.60;99.90;;;;;;2035302;29;20031;-70
2023/03/08 02:16:12;;;;;;;31.00;24.60;;;4.60;99.90;;;;;;2027419;29;20025;-70
2023/03/08 02:17:13;;;;;;;27.95;24.88;;;4.60;99.90;;;;;;2029848;29;20478;-70
2023/03/08 02:18:14;;;;;;;31.35;24.70;;;4.60;99.90;;;;;;2034010;29;20142;-70
2023/03/08 02:19:27;;;;;;;39.47;24.50;;;4.60;99.90;;;;;;2036633;29;20503;-70
2023/03/08 02:20:39;;;;;;;30.15;25.48;;;4.60;99.90;;;;;;2037432;29;20038;-71
2023/03/08 02:21:39;;;;;;;28.88;24.83;;;4.60;99.90;;;;;;2036794;29;20028;-71
2023/03/08 02:22:42;;;;;;;30.63;25.52;;;4.60;99.90;;;;;;2038337;29;20063;-71
2023/03/08 02:23:42;;;;;;;33.55;26.20;;;4.60;99.90;;;;;;2037403;29;20111;-71
2023/03/08 02:24:43;;;;;;;26.00;23.20;;;4.60;99.90;;;;;;2035852;29;20036;-71
2023/03/08 02:25:54;;;;;;;29.13;25.10;;;4.60;99.90;;;;;;2028610;29;20032;-71
2023/03/08 02:27:03;;;;;;;31.02;25.40;;;4.60;99.90;;;;;;2028096;29;20040;-71
2023/03/08 02:28:05;;;;;;;29.33;25.38;;;4.60;99.90;;;;;;2036747;29;20035;-71
2023/03/08 02:29:06;;;;;;;30.02;25.13;;;4.60;99.90;;;;;;2036400;29;20031;-71
2023/03/08 02:30:08;;;;;;;27.48;24.15;;;4.60;99.90;;;;;;2034576;29;20131;-71
2023/03/08 02:31:09;;;;;;;31.77;25.13;;;4.60;99.90;;;;;;2036557;29;20100;-71
2023/03/08 02:32:10;;;;;;;28.40;23.48;;;4.60;99.90;;;;;;2035635;29;20563;-71
2023/03/08 02:33:10;;;;;;;26.85;23.42;;;4.70;99.90;;;;;;2037121;29;20668;-71
2023/03/08 02:34:11;;;;;;;32.72;27.02;;;4.70;99.90;;;;;;2037406;29;20482;-71
2023/03/08 02:35:11;;;;;;;31.20;26.42;;;4.70;99.90;;;;;;2035662;29;20835;-71
2023/03/08 02:36:12;;;;;;;33.70;26.58;;;4.70;99.90;;;;;;2037121;29;20059;-71
2023/03/08 02:37:12;;;;;;;30.63;24.80;;;4.70;99.90;;;;;;2036976;29;20031;-71
2023/03/08 02:38:16;;;;;;;31.80;26.98;;;4.70;99.90;;;;;;2035636;29;20036;-71
2023/03/08 02:39:16;;;;;;;27.58;23.45;;;4.60;99.90;;;;;;2036845;29;20082;-71
2023/03/08 02:40:17;;;;;;;30.85;25.48;;;4.70;99.90;;;;;;2036117;29;20019;-71
2023/03/08 02:41:19;;;;;;;30.58;26.10;;;4.70;99.90;;;;;;2035718;29;20102;-71
2023/03/08 02:42:19;;;;;;;26.95;23.42;;;4.70;99.90;;;;;;2036563;29;20031;-71
2023/03/08 02:43:20;;;;;;;28.08;24.77;;;4.70;99.90;;;;;;2030292;29;20495;-71
2023/03/08 02:44:20;;;;;;;31.10;26.27;;;4.70;99.90;;;;;;2029062;29;20103;-71
2023/03/08 02:45:22;;;;;;;29.88;25.25;;;4.70;99.90;;;;;;2037348;29;20028;-71
2023/03/08 02:46:22;;;;;;;32.47;26.63;;;4.70;99.90;;;;;;2037351;29;20031;-71
2023/03/08 02:47:23;;;;;;;32.22;24.77;;;4.70;99.90;;;;;;2036660;29;20031;-71
2023/03/08 02:48:24;;;;;;;31.15;25.80;;;4.70;99.90;;;;;;2035969;29;20695;-71
2023/03/08 02:49:24;;;;;;;30.80;25.73;;;4.70;99.90;;;;;;2035609;29;20031;-71
2023/03/08 02:50:25;;;;;;;35.30;26.63;;;4.70;99.90;;;;;;2033294;29;20031;-71
2023/03/08 02:51:25;;;;;;;28.67;24.83;;;4.80;99.90;;;;;;2035505;29;20066;-71
2023/03/08 02:52:26;;;;;;;28.52;25.38;;;4.80;99.90;;;;;;2035089;29;20032;-71
2023/03/08 02:53:27;;;;;;;29.23;25.30;;;4.80;99.90;;;;;;2036870;29;20102;-71
2023/03/08 02:54:27;;;;;;;31.25;26.75;;;4.80;99.90;;;;;;2035707;29;20646;-70
2023/03/08 02:55:28;;;;;;;33.60;27.92;;;4.80;99.90;;;;;;2036169;29;20016;-71
2023/03/08 02:56:28;;;;;;;33.03;28.73;;;4.80;99.90;;;;;;2036879;29;20028;-71
2023/03/08 02:57:29;;;;;;;28.02;24.45;;;4.80;99.90;;;;;;2036750;29;20039;-71
2023/03/08 02:58:29;;;;;;;27.90;24.63;;;4.80;99.90;;;;;;2037024;29;20050;-71
2023/03/08 02:59:30;;;;;;;32.83;26.38;;;4.80;99.90;;;;;;2036149;29;20024;-71
2023/03/08 03:00:31;;;;;;;35.15;29.75;;;4.80;99.90;;;;;;2036574;29;20058;-71
2023/03/08 03:01:31;;;;;;;37.35;29.85;;;4.80;99.90;;;;;;2036001;29;20531;-71
2023/03/08 03:02:33;;;;;;;33.20;29.38;;;4.80;99.90;;;;;;2035750;29;20027;-71
2023/03/08 03:03:33;;;;;;;35.00;29.20;;;4.80;99.90;;;;;;2036509;29;20020;-71
2023/03/08 03:04:34;;;;;;;38.58;31.80;;;4.80;99.90;;;;;;2034925;29;20479;-71
2023/03/08 03:05:38;;;;;;;36.83;31.08;;;4.80;99.90;;;;;;2036410;29;20067;-71
2023/03/08 03:06:39;;;;;;;36.80;30.85;;;4.80;99.90;;;;;;2035743;29;20439;-71
2023/03/08 03:07:42;;;;;;;36.45;30.65;;;4.80;99.90;;;;;;2037245;29;20031;-71
2023/03/08 03:08:42;;;;;;;38.88;31.70;;;4.80;99.90;;;;;;2036141;29;20060;-71
2023/03/08 03:09:43;;;;;;;32.25;28.75;;;4.80;99.90;;;;;;2036236;29;20476;-71
2023/03/08 03:10:43;;;;;;;32.72;28.73;;;4.80;99.90;;;;;;2036507;29;20040;-71
2023/03/08 03:11:44;;;;;;;31.30;27.27;;;4.80;99.90;;;;;;2034681;29;20554;-71
2023/03/08 03:12:44;;;;;;;31.10;27.80;;;4.80;99.90;;;;;;2035876;29;20039;-71
2023/03/08 03:13:46;;;;;;;31.00;27.63;;;4.80;99.90;;;;;;2034899;29;20038;-71
2023/03/08 03:14:46;;;;;;;28.63;24.73;;;4.80;99.90;;;;;;2036600;29;20056;-71
2023/03/08 03:15:47;;;;;;;35.30;26.65;;;4.80;99.90;;;;;;2037074;29;20075;-71
2023/03/08 03:16:47;;;;;;;32.90;27.92;;;4.80;99.90;;;;;;2034683;29;20128;-71
2023/03/08 03:17:48;;;;;;;34.03;28.27;;;4.80;99.90;;;;;;2035549;29;20134;-71
2023/03/08 03:18:48;;;;;;;31.23;25.60;;;4.80;99.90;;;;;;2035025;29;20027;-71
2023/03/08 03:19:49;;;;;;;29.95;25.40;;;4.80;99.90;;;;;;2034391;29;20387;-71
2023/03/08 03:20:49;;;;;;;32.10;25.98;;;4.80;99.90;;;;;;2035402;29;20047;-71
2023/03/08 03:21:50;;;;;;;28.85;24.20;;;4.80;99.90;;;;;;2036306;29;20149;-71
2023/03/08 03:22:50;;;;;;;31.58;25.55;;;4.80;99.90;;;;;;2036609;29;20047;-71
2023/03/08 03:23:53;;;;;;;28.95;25.95;;;4.80;99.90;;;;;;2035829;29;20111;-71
2023/03/08 03:24:54;;;;;;;28.77;25.65;;;4.80;99.90;;;;;;2035340;29;20050;-71
2023/03/08 03:25:54;;;;;;;32.65;26.98;;;4.80;99.90;;;;;;2037088;29;20042;-71
2023/03/08 03:26:55;;;;;;;28.80;25.77;;;4.80;99.90;;;;;;2035624;29;20126;-71
2023/03/08 03:27:56;;;;;;;28.33;25.27;;;4.80;99.90;;;;;;2036278;29;20035;-71
2023/03/08 03:28:57;;;;;;;32.50;25.83;;;4.80;99.90;;;;;;2035571;29;20016;-71
2023/03/08 03:29:58;;;;;;;28.73;25.63;;;4.80;99.90;;;;;;2035924;29;20131;-71
2023/03/08 03:30:59;;;;;;;26.92;23.48;;;4.80;99.90;;;;;;2035202;29;20035;-71
2023/03/08 03:31:59;;;;;;;28.13;23.42;;;4.80;99.90;;;;;;2036180;29;20523;-71
2023/03/08 03:33:00;;;;;;;27.25;22.63;;;4.80;99.90;;;;;;2036082;29;20130;-71
2023/03/08 03:34:01;;;;;;;26.92;24.02;;;4.90;99.90;;;;;;2036914;29;20107;-71
2023/03/08 03:35:01;;;;;;;27.02;24.13;;;4.80;99.90;;;;;;2037214;29;20025;-71
2023/03/08 03:36:02;;;;;;;27.15;24.27;;;4.90;99.90;;;;;;2037199;29;20075;-71
2023/03/08 03:37:03;;;;;;;27.45;24.23;;;4.90;99.90;;;;;;2036845;29;20019;-71
2023/03/08 03:38:03;;;;;;;25.60;22.92;;;4.90;99.90;;;;;;2034181;29;20024;-71
2023/03/08 03:39:04;;;;;;;24.77;22.17;;;4.90;99.90;;;;;;2036529;29;20036;-71
2023/03/08 03:40:05;;;;;;;30.00;26.02;;;4.90;99.90;;;;;;2034927;29;20082;-71
2023/03/08 03:41:11;;;;;;;25.90;22.05;;;4.90;99.90;;;;;;2037222;29;20028;-71
2023/03/08 03:42:11;;;;;;;28.15;23.83;;;4.90;99.90;;;;;;2034739;29;20023;-71
2023/03/08 03:43:12;;;;;;;25.30;22.65;;;4.90;99.90;;;;;;2036174;29;20059;-71
2023/03/08 03:44:12;;;;;;;30.17;24.48;;;4.90;99.90;;;;;;2035831;29;20031;-71
2023/03/08 03:45:13;;;;;;;28.13;25.05;;;4.90;99.90;;;;;;2036209;29;20038;-71
2023/03/08 03:46:18;;;;;;;30.30;26.17;;;4.90;99.90;;;;;;2027593;29;20039;-71
2023/03/08 03:47:19;;;;;;;26.63;23.73;;;4.90;99.90;;;;;;2027742;29;20084;-71
2023/03/08 03:48:19;;;;;;;28.00;25.02;;;4.90;99.90;;;;;;2035200;29;20031;-71
2023/03/08 03:49:20;;;;;;;29.00;25.20;;;4.80;99.90;;;;;;2036582;29;20030;-71
2023/03/08 03:50:20;;;;;;;26.60;23.67;;;4.80;99.90;;;;;;2042018;28;20023;-71
2023/03/08 03:51:22;;;;;;;29.38;25.10;;;4.90;99.90;;;;;;2043489;28;20121;-71
2023/03/08 03:52:22;;;;;;;26.33;23.10;;;4.80;99.90;;;;;;2037223;29;20076;-71
2023/03/08 03:53:23;;;;;;;24.85;21.80;;;4.80;99.90;;;;;;2036570;29;20087;-71
2023/03/08 03:54:24;;;;;;;25.42;22.50;;;4.80;99.90;;;;;;2035704;29;20419;-71
2023/03/08 03:55:24;;;;;;;25.10;22.42;;;4.90;99.90;;;;;;2035632;29;20463;-71
2023/03/08 03:56:26;;;;;;;27.27;24.33;;;4.90;99.90;;;;;;2037583;29;20329;-71
2023/03/08 03:57:27;;;;;;;24.35;21.85;;;4.90;99.90;;;;;;2036586;29;20439;-71
2023/03/08 03:58:27;;;;;;;26.40;23.55;;;4.90;99.90;;;;;;2033642;29;20020;-71
2023/03/08 03:59:28;;;;;;;28.75;23.92;;;4.80;99.90;;;;;;2043555;28;20048;-71
2023/03/08 04:00:28;;;;;;;26.23;23.33;;;4.90;99.90;;;;;;2042611;28;20483;-71
2023/03/08 04:01:30;;;;;;;25.40;22.50;;;4.90;99.90;;;;;;2035258;29;20028;-71
2023/03/08 04:02:31;;;;;;;32.63;24.38;;;4.90;99.90;;;;;;2035019;29;20131;-71
2023/03/08 04:03:31;;;;;;;28.70;23.67;;;4.90;99.90;;;;;;2036244;29;20020;-71
2023/03/08 04:04:32;;;;;;;28.90;24.25;;;4.90;99.90;;;;;;2035951;29;20035;-71
2023/03/08 04:05:33;;;;;;;27.88;24.30;;;4.90;99.90;;;;;;2036024;29;20559;-71
2023/03/08 04:06:34;;;;;;;30.15;25.02;;;4.80;99.90;;;;;;2035034;29;20029;-71
2023/03/08 04:07:34;;;;;;;28.27;25.23;;;4.80;99.90;;;;;;2034692;29;20031;-71
2023/03/08 04:08:40;;;;;;;24.98;21.73;;;4.80;99.90;;;;;;2035645;29;20016;-71
2023/03/08 04:09:41;;;;;;;27.25;23.98;;;4.80;99.90;;;;;;2035383;29;20110;-72
2023/03/08 04:10:42;;;;;;;23.08;20.70;;;4.80;99.90;;;;;;2035761;29;20020;-71
2023/03/08 04:11:42;;;;;;;27.27;22.70;;;4.80;99.90;;;;;;2034739;29;20368;-71
2023/03/08 04:12:46;;;;;;;25.77;22.73;;;4.80;99.90;;;;;;2035137;29;20147;-71
2023/03/08 04:13:47;;;;;;;26.13;23.00;;;4.80;99.90;;;;;;2035086;29;20039;-71
2023/03/08 04:14:48;;;;;;;24.10;21.20;;;4.80;99.90;;;;;;2037252;29;20079;-71
2023/03/08 04:15:48;;;;;;;25.20;22.48;;;4.90;99.90;;;;;;2035667;29;20042;-71
2023/03/08 04:16:49;;;;;;;26.65;22.05;;;4.90;99.90;;;;;;2036239;29;20115;-71
2023/03/08 04:17:51;;;;;;;28.48;24.65;;;4.90;99.90;;;;;;2036760;29;20491;-71
2023/03/08 04:18:54;;;;;;;25.92;23.20;;;4.80;99.90;;;;;;2036336;29;20456;-71
2023/03/08 04:19:54;;;;;;;27.33;23.60;;;4.80;99.90;;;;;;2035340;29;20028;-71
2023/03/08 04:20:55;;;;;;;24.50;21.00;;;4.80;99.90;;;;;;2035672;29;20024;-71
2023/03/08 04:21:55;;;;;;;26.25;20.70;;;4.80;99.90;;;;;;2034499;29;20924;-71
2023/03/08 04:22:56;;;;;;;28.45;22.27;;;4.80;99.90;;;;;;2036817;29;20675;-71
2023/03/08 04:23:57;;;;;;;26.25;20.90;;;4.80;99.90;;;;;;2035496;29;20039;-71
2023/03/08 04:24:57;;;;;;;22.98;20.58;;;4.80;99.90;;;;;;2036412;29;20108;-71
2023/03/08 04:26:00;;;;;;;22.63;20.17;;;4.80;99.90;;;;;;2036461;29;20028;-71
2023/03/08 04:27:00;;;;;;;23.52;19.52;;;4.80;99.90;;;;;;2035915;29;20027;-71
2023/03/08 04:28:01;;;;;;;23.38;18.80;;;4.80;99.90;;;;;;2036686;29;20039;-71
2023/03/08 04:29:04;;;;;;;26.20;20.33;;;4.80;99.90;;;;;;2035652;29;20062;-71
2023/03/08 04:30:06;;;;;;;25.02;19.58;;;4.80;99.90;;;;;;2035156;29;20399;-71
2023/03/08 04:31:25;;;;;;;25.13;21.45;;;4.80;99.90;;;;;;2035245;29;20103;-71
2023/03/08 04:32:25;;;;;;;23.15;20.33;;;4.80;99.90;;;;;;2035603;29;20027;-71
2023/03/08 04:33:26;;;;;;;24.60;22.00;;;4.80;99.90;;;;;;2027521;29;20072;-71
2023/03/08 04:34:26;;;;;;;21.65;19.35;;;4.80;99.90;;;;;;2027737;29;20456;-71
2023/03/08 04:35:27;;;;;;;24.10;20.45;;;4.80;99.90;;;;;;2035280;29;20024;-71
2023/03/08 04:36:28;;;;;;;21.73;19.42;;;4.80;99.90;;;;;;2036068;29;20094;-71
2023/03/08 04:37:29;;;;;;;22.88;19.85;;;4.80;99.90;;;;;;2035382;29;20431;-71
2023/03/08 04:38:32;;;;;;;24.40;21.13;;;4.80;99.90;;;;;;2035630;29;20015;-71
2023/03/08 04:39:32;;;;;;;24.10;20.80;;;4.80;99.90;;;;;;2035098;29;20016;-71
2023/03/08 04:41:00;;;;;;;27.95;21.35;;;4.80;99.90;;;;;;2034614;29;20027;-71
2023/03/08 04:41:53;;;;;;;26.98;20.73;;;4.80;99.90;;;;;;2036279;29;20032;-71
2023/03/08 04:42:54;;;;;;;26.45;22.63;;;4.80;99.90;;;;;;2037192;29;20400;-71
2023/03/08 04:43:56;;;;;;;27.80;23.55;;;4.80;99.90;;;;;;2035947;29;20055;-71
2023/03/08 04:44:57;;;;;;;24.50;21.55;;;4.80;99.90;;;;;;2038248;29;20028;-71
2023/03/08 04:45:58;;;;;;;28.60;23.23;;;4.80;99.90;;;;;;2036248;29;20115;-71
2023/03/08 04:46:58;;;;;;;26.60;22.83;;;4.80;99.90;;;;;;2033902;29;20387;-71
2023/03/08 04:47:59;;;;;;;22.95;19.90;;;4.80;99.90;;;;;;2035755;29;20027;-71
2023/03/08 04:48:59;;;;;;;26.92;21.35;;;4.80;99.90;;;;;;2034843;29;20059;-71
2023/03/08 04:50:00;;;;;;;28.42;21.83;;;4.80;99.90;;;;;;2035170;29;20084;-71
2023/03/08 04:51:03;;;;;;;25.23;21.27;;;4.70;99.90;;;;;;2034849;29;20480;-71
2023/03/08 04:52:04;;;;;;;26.38;22.90;;;4.70;99.90;;;;;;2036167;29;20032;-71
2023/03/08 04:53:04;;;;;;;23.70;20.05;;;4.70;99.90;;;;;;2037532;29;20108;-71
2023/03/08 04:54:05;;;;;;;24.15;21.50;;;4.70;99.90;;;;;;2035537;29;20110;-71
2023/03/08 04:55:06;;;;;;;26.00;21.15;;;4.70;99.90;;;;;;2035586;29;20060;-71
2023/03/08 04:56:07;;;;;;;22.80;20.42;;;4.70;99.90;;;;;;2035887;29;20163;-71
2023/03/08 04:57:08;;;;;;;24.65;21.48;;;4.70;99.90;;;;;;2034596;29;20084;-71
2023/03/08 04:58:08;;;;;;;23.95;20.48;;;4.70;99.90;;;;;;2036959;29;20059;-71
2023/03/08 04:59:09;;;;;;;25.88;21.63;;;4.70;99.90;;;;;;2035513;29;20028;-71
2023/03/08 05:00:10;;;;;;;24.35;20.45;;;4.70;99.90;;;;;;2035407;29;20059;-71
2023/03/08 05:01:16;;;;;;;22.70;20.30;;;4.70;99.90;;;;;;2036815;29;20181;-71
2023/03/08 05:02:17;;;;;;;24.30;21.52;;;4.70;99.90;;;;;;2035021;29;20023;-71
2023/03/08 05:03:18;;;;;;;26.73;20.52;;;4.60;99.90;;;;;;2035754;29;20031;-71
2023/03/08 05:04:18;;;;;;;27.80;20.65;;;4.60;99.90;;;;;;2027615;29;20043;-71
2023/03/08 05:05:19;;;;;;;22.67;20.25;;;4.60;99.90;;;;;;2027656;29;20472;-71
2023/03/08 05:06:22;;;;;;;23.42;20.92;;;4.60;99.90;;;;;;2038244;29;20094;-71
2023/03/08 05:07:23;;;;;;;23.05;20.45;;;4.60;99.90;;;;;;2036477;29;20039;-71
2023/03/08 05:08:23;;;;;;;24.60;21.10;;;4.60;99.90;;;;;;2038389;29;20522;-71
2023/03/08 05:09:24;;;;;;;26.05;20.55;;;4.70;99.90;;;;;;2037109;29;20020;-71
2023/03/08 05:10:24;;;;;;;29.73;21.27;;;4.60;99.90;;;;;;2038493;29;20590;-71
2023/03/08 05:11:26;;;;;;;23.58;20.52;;;4.60;99.90;;;;;;2037219;29;20852;-71
2023/03/08 05:12:27;;;;;;;23.00;19.77;;;4.70;99.90;;;;;;2037584;29;20028;-71
2023/03/08 05:13:30;;;;;;;26.75;21.98;;;4.60;99.90;;;;;;2037834;29;20052;-71
2023/03/08 05:14:31;;;;;;;26.73;21.95;;;4.60;99.90;;;;;;2028037;29;20652;-71
2023/03/08 05:15:31;;;;;;;27.42;22.70;;;4.60;99.90;;;;;;2028093;29;20384;-71
2023/03/08 05:16:32;;;;;;;26.15;21.42;;;4.60;99.90;;;;;;2035782;29;20042;-72